Time;durP1;ratioP1;P1;durP2;ratioP2;P2;SDS_P1;SDS_P2;PMS_P1;PMS_P2;Temp;Humidity;BMP_temperature;BMP_pressure;BME280_temperature;BME280_humidity;BME280_pressure;Samples;Min_cycle;Max_cycle;Signal;HPM_P1;HPM_P2
2024/04/09 00:00:52;;;;;;;3.40;2.20;;;;;;;15.95;52.15;98876.04;104207;1273;98018;-77
2024/04/09 00:03:41;;;;;;;3.80;2.10;;;;;;;15.95;52.16;98877.11;104228;1286;109167;-77
2024/04/09 00:06:15;;;;;;;2.90;1.90;;;;;;;15.97;52.12;98876.59;104467;1271;99315;-75
2024/04/09 00:08:46;;;;;;;3.00;2.00;;;;;;;15.97;52.31;98878.14;104206;1273;98020;-77
2024/04/09 00:11:21;;;;;;;3.10;2.10;;;;;;;15.97;52.30;98877.21;104392;1273;111266;-81
2024/04/09 00:13:52;;;;;;;3.00;2.10;;;;;;;15.97;52.35;98877.46;104114;1273;97956;-77
2024/04/09 00:16:27;;;;;;;5.90;2.10;;;;;;;15.96;52.33;98880.41;104191;1274;107204;-77
2024/04/09 00:18:58;;;;;;;4.00;2.10;;;;;;;15.96;52.38;98879.34;104266;1271;98081;-77
2024/04/09 00:21:30;;;;;;;4.20;3.10;;;;;;;15.94;52.45;98881.27;104143;1274;98023;-77
2024/04/09 00:24:00;;;;;;;2.80;2.00;;;;;;;15.93;52.49;98884.95;104399;1273;112623;-78
2024/04/09 00:26:31;;;;;;;2.80;1.90;;;;;;;15.93;52.42;98885.70;104428;1271;97927;-76
2024/04/09 00:28:59;;;;;;;2.40;1.70;;;;;;;15.93;52.44;98884.04;104161;1269;107742;-76
2024/04/09 00:31:27;;;;;;;4.00;1.90;;;;;;;15.94;52.51;98888.30;104474;1274;98014;-77
2024/04/09 00:33:55;;;;;;;5.50;2.10;;;;;;;15.96;52.47;98888.27;104759;1273;97969;-77
2024/04/09 00:36:24;;;;;;;2.70;1.90;;;;;;;15.95;52.58;98885.13;104163;1270;111071;-75
2024/04/09 00:38:54;;;;;;;3.70;2.00;;;;;;;15.94;52.43;98882.89;104354;1270;99346;-77
2024/04/09 00:41:24;;;;;;;6.30;2.60;;;;;;;15.93;52.58;98884.10;104229;1274;107129;-77
2024/04/09 00:43:52;;;;;;;3.90;1.90;;;;;;;15.89;52.62;98879.58;104192;1273;98045;-76
2024/04/09 00:46:20;;;;;;;2.30;1.80;;;;;;;15.90;52.59;98878.67;104225;1274;98077;-77
2024/04/09 00:48:50;;;;;;;3.50;2.10;;;;;;;15.90;52.65;98875.93;104810;1270;110842;-81
2024/04/09 00:51:20;;;;;;;3.60;2.00;;;;;;;15.89;52.67;98875.00;103937;1276;98015;-76
2024/04/09 00:53:49;;;;;;;4.40;2.00;;;;;;;15.87;52.65;98877.70;104903;1271;107784;-76
2024/04/09 00:56:18;;;;;;;5.90;2.00;;;;;;;15.85;52.66;98878.59;104206;1273;97980;-77
2024/04/09 00:58:46;;;;;;;4.00;2.20;;;;;;;15.85;52.68;98881.98;104198;1273;98030;-76
2024/04/09 01:01:18;;;;;;;3.40;2.00;;;;;;;15.85;52.68;98884.61;104131;1270;111155;-77
2024/04/09 01:03:48;;;;;;;3.50;1.90;;;;;;;15.86;52.73;98882.78;104139;1271;97984;-77
2024/04/09 01:06:16;;;;;;;3.40;1.90;;;;;;;15.86;52.81;98883.83;104726;1273;107657;-76
2024/04/09 01:08:44;;;;;;;2.90;1.90;;;;;;;15.87;52.87;98882.65;104208;1270;99324;-77
2024/04/09 01:11:12;;;;;;;3.30;2.10;;;;;;;15.89;52.73;98883.06;104660;1270;97991;-80
2024/04/09 01:13:41;;;;;;;4.50;2.20;;;;;;;15.89;52.92;98884.15;104180;1272;111212;-77
2024/04/09 01:16:10;;;;;;;3.70;2.10;;;;;;;15.89;52.84;98886.09;104656;1273;98023;-76
2024/04/09 01:18:38;;;;;;;3.00;2.10;;;;;;;15.89;53.00;98891.42;104250;1274;107739;-79
2024/04/09 01:21:08;;;;;;;3.80;1.80;;;;;;;15.89;52.94;98893.96;104041;1272;98009;-76
2024/04/09 01:23:36;;;;;;;4.40;1.90;;;;;;;15.87;52.91;98897.33;104282;1274;98013;-77
2024/04/09 01:26:04;;;;;;;2.80;2.10;;;;;;;15.85;52.94;98898.98;104313;1273;111320;-75
2024/04/09 01:28:32;;;;;;;2.90;1.80;;;;;;;15.83;52.95;98903.65;104368;1269;97940;-77
2024/04/09 01:31:01;;;;;;;2.90;2.10;;;;;;;15.81;52.97;98904.72;104423;1271;107179;-77
2024/04/09 01:33:31;;;;;;;3.10;2.10;;;;;;;15.77;53.01;98904.15;105200;1270;99260;-76
2024/04/09 01:36:06;;;;;;;5.00;2.00;;;;;;;15.74;53.00;98902.31;104242;1271;98004;-81
2024/04/09 01:38:34;;;;;;;5.70;2.20;;;;;;;15.72;53.06;98902.20;103923;1276;110987;-78
2024/04/09 01:41:04;;;;;;;4.60;2.00;;;;;;;15.69;53.17;98901.69;104199;1274;97950;-75
2024/04/09 01:43:32;;;;;;;4.10;1.90;;;;;;;15.68;53.14;98902.40;104486;1274;107368;-75
2024/04/09 01:46:08;;;;;;;5.20;2.30;;;;;;;15.67;53.13;98898.73;103972;1273;98078;-76
2024/04/09 01:48:42;;;;;;;2.80;2.00;;;;;;;15.67;53.13;98894.61;104264;1270;98029;-75
2024/04/09 01:51:11;;;;;;;4.70;2.00;;;;;;;15.66;53.17;98895.59;104116;1271;110908;-77
2024/04/09 01:53:48;;;;;;;3.40;2.30;;;;;;;15.66;53.13;98895.40;104453;1271;98013;-77
2024/04/09 01:56:17;;;;;;;3.20;2.00;;;;;;;15.65;53.18;98890.19;104156;1274;108013;-81
2024/04/09 01:58:48;;;;;;;10.40;2.50;;;;;;;15.63;53.14;98889.40;104088;1273;98267;-77
2024/04/09 02:01:16;;;;;;;3.20;2.00;;;;;;;15.62;53.27;98892.58;104048;1276;99229;-79
2024/04/09 02:03:47;;;;;;;2.70;1.90;;;;;;;15.60;53.26;98894.02;103950;1270;110796;-77
2024/04/09 02:06:16;;;;;;;3.50;2.10;;;;;;;15.59;53.34;98888.17;104279;1270;98047;-75
2024/04/09 02:08:44;;;;;;;3.50;2.20;;;;;;;15.62;53.30;98889.92;104196;1269;107588;-77
2024/04/09 02:11:12;;;;;;;6.90;2.40;;;;;;;15.63;53.32;98893.52;104172;1272;98066;-77
2024/04/09 02:13:47;;;;;;;6.80;2.30;;;;;;;15.62;53.33;98889.16;104572;1270;97982;-80
2024/04/09 02:16:16;;;;;;;4.00;2.20;;;;;;;15.62;53.36;98890.40;104107;1270;111291;-77
2024/04/09 02:18:46;;;;;;;3.80;1.90;;;;;;;15.63;53.40;98896.95;104261;1270;97991;-77
2024/04/09 02:21:20;;;;;;;3.90;2.20;;;;;;;15.62;53.40;98894.35;103847;1271;107526;-77
2024/04/09 02:23:48;;;;;;;4.90;2.40;;;;;;;15.61;53.47;98890.14;104103;1277;97934;-77
2024/04/09 02:26:21;;;;;;;4.80;2.20;;;;;;;15.59;53.40;98888.81;104074;1270;98056;-78
2024/04/09 02:28:51;;;;;;;7.10;1.90;;;;;;;15.56;53.48;98892.77;104278;1270;110982;-76
2024/04/09 02:31:18;;;;;;;3.90;2.20;;;;;;;15.56;53.47;98896.14;104042;1270;99441;-78
2024/04/09 02:33:46;;;;;;;4.20;2.20;;;;;;;15.56;53.63;98896.85;104835;1270;107623;-79
2024/04/09 02:36:14;;;;;;;5.60;2.40;;;;;;;15.56;53.62;98899.02;104077;1277;98003;-77
2024/04/09 02:38:43;;;;;;;3.40;1.90;;;;;;;15.54;53.49;98896.21;105424;1275;98110;-76
2024/04/09 02:41:14;;;;;;;4.60;2.00;;;;;;;15.53;53.59;98897.67;104781;1270;111407;-76
2024/04/09 02:43:42;;;;;;;4.50;2.50;;;;;;;15.54;53.50;98896.06;104487;1272;98121;-77
2024/04/09 02:46:10;;;;;;;6.00;2.10;;;;;;;15.54;53.60;98894.58;104151;1277;107183;-77
2024/04/09 02:48:38;;;;;;;3.30;2.20;;;;;;;15.55;53.54;98895.62;104250;1271;97970;-77
2024/04/09 02:51:06;;;;;;;5.20;2.10;;;;;;;15.55;53.56;98893.02;105489;1275;98097;-77
2024/04/09 02:53:34;;;;;;;3.70;1.90;;;;;;;15.56;53.57;98894.39;104406;1272;111521;-80
2024/04/09 02:56:05;;;;;;;9.30;2.70;;;;;;;15.58;53.70;98897.98;104147;1277;99355;-76
2024/04/09 02:58:35;;;;;;;3.50;2.00;;;;;;;15.57;53.67;98899.64;104389;1270;107639;-77
2024/04/09 03:01:06;;;;;;;3.40;1.90;;;;;;;15.56;53.76;98896.37;103933;1274;98007;-76
2024/04/09 03:03:44;;;;;;;4.60;2.10;;;;;;;15.57;53.83;98898.05;105473;1275;98001;-76
2024/04/09 03:06:14;;;;;;;4.10;2.10;;;;;;;15.58;53.84;98899.02;104328;1272;111672;-76
2024/04/09 03:08:42;;;;;;;5.20;2.10;;;;;;;15.59;53.77;98898.95;104474;1273;98010;-78
2024/04/09 03:11:13;;;;;;;3.80;2.20;;;;;;;15.60;53.84;98894.35;104969;1271;105719;-77
2024/04/09 03:13:42;;;;;;;5.10;2.30;;;;;;;15.60;53.89;98899.69;104879;1271;98020;-81
2024/04/09 03:16:22;;;;;;;5.40;2.00;;;;;;;15.61;53.87;98901.77;104602;1270;99311;-77
2024/04/09 03:18:53;;;;;;;3.00;2.00;;;;;;;15.63;53.92;98899.63;104397;1270;110877;-75
2024/04/09 03:21:22;;;;;;;5.40;2.30;;;;;;;15.65;53.94;98896.23;104118;1277;99404;-76
2024/04/09 03:23:50;;;;;;;3.10;2.20;;;;;;;15.64;53.95;98896.48;104225;1276;108372;-76
2024/04/09 03:26:18;;;;;;;4.20;2.40;;;;;;;15.63;53.91;98895.83;104216;1277;98062;-77
2024/04/09 03:28:46;;;;;;;3.10;1.90;;;;;;;15.64;53.84;98900.09;104259;1273;97994;-78
2024/04/09 03:31:14;;;;;;;3.10;2.30;;;;;;;15.64;53.99;98896.88;104446;1270;111121;-75
2024/04/09 03:33:42;;;;;;;3.90;2.10;;;;;;;15.66;54.02;98895.93;103882;1274;98168;-76
2024/04/09 03:36:11;;;;;;;3.50;2.30;;;;;;;15.67;54.08;98894.40;105473;1269;107836;-76
2024/04/09 03:38:39;;;;;;;5.80;2.40;;;;;;;15.68;53.94;98896.36;104398;1271;98026;-77
2024/04/09 03:41:07;;;;;;;4.20;2.40;;;;;;;15.69;53.94;98893.01;107158;1270;95799;-75
2024/04/09 03:43:35;;;;;;;4.50;2.60;;;;;;;15.69;54.00;98895.95;104051;1271;110853;-75
2024/04/09 03:46:11;;;;;;;3.20;2.00;;;;;;;15.71;54.13;98898.73;104431;1276;98081;-76
2024/04/09 03:48:43;;;;;;;2.70;2.00;;;;;;;15.69;54.12;98898.14;104169;1270;109097;-78
2024/04/09 03:51:14;;;;;;;4.90;2.00;;;;;;;15.68;54.08;98900.42;103936;1276;98022;-76
2024/04/09 03:53:48;;;;;;;4.70;2.30;;;;;;;15.70;54.21;98900.09;104333;1270;97899;-76
2024/04/09 03:56:16;;;;;;;4.50;2.30;;;;;;;15.69;54.21;98898.17;105037;1270;109789;-77
2024/04/09 03:58:49;;;;;;;3.80;2.20;;;;;;;15.71;54.16;98899.27;105785;1269;98014;-80
2024/04/09 04:01:26;;;;;;;2.90;1.90;;;;;;;15.70;54.17;98899.83;106762;1268;107696;-73
2024/04/09 04:03:54;;;;;;;3.70;2.10;;;;;;;15.72;54.21;98898.20;103995;1275;98005;-75
2024/04/09 04:06:22;;;;;;;3.50;2.30;;;;;;;15.75;54.32;98892.05;105546;1271;97992;-74
2024/04/09 04:08:49;;;;;;;4.30;2.40;;;;;;;15.77;54.24;98894.38;104117;1274;111751;-73
2024/04/09 04:11:17;;;;;;;4.70;2.40;;;;;;;15.77;54.21;98894.35;104536;1273;98008;-72
2024/04/09 04:13:44;;;;;;;4.20;2.30;;;;;;;15.77;54.29;98893.41;104613;1274;107471;-74
2024/04/09 04:16:15;;;;;;;4.50;2.10;;;;;;;15.80;54.29;98894.98;105113;1273;98004;-74
2024/04/09 04:18:45;;;;;;;3.70;2.20;;;;;;;15.80;54.25;98893.73;104401;1275;98080;-74
2024/04/09 04:21:23;;;;;;;3.30;2.10;;;;;;;15.79;54.36;98894.51;107100;1270;112319;-76
2024/04/09 04:23:54;;;;;;;4.50;2.10;;;;;;;15.83;54.29;98890.80;104247;1273;98419;-74
2024/04/09 04:26:25;;;;;;;5.30;2.30;;;;;;;15.85;54.32;98890.17;104883;1271;106347;-73
2024/04/09 04:28:54;;;;;;;4.10;2.40;;;;;;;15.91;54.44;98891.45;107390;1270;95865;-75
2024/04/09 04:31:24;;;;;;;3.30;2.40;;;;;;;15.94;54.32;98896.52;106294;1271;99313;-73
2024/04/09 04:33:51;;;;;;;4.00;2.50;;;;;;;15.96;54.46;98896.11;105028;1273;111313;-74
2024/04/09 04:36:20;;;;;;;4.10;2.50;;;;;;;15.99;54.58;98895.36;105292;1271;98087;-74
2024/04/09 04:38:49;;;;;;;3.00;1.80;;;;;;;15.99;54.32;98894.77;104441;1274;107295;-73
2024/04/09 04:41:17;;;;;;;3.60;2.30;;;;;;;16.01;54.64;98896.35;105626;1271;98078;-73
2024/04/09 04:43:45;;;;;;;5.80;2.20;;;;;;;16.04;54.53;98897.98;104586;1273;98021;-74
2024/04/09 04:46:12;;;;;;;4.40;2.50;;;;;;;16.06;54.53;98897.98;104105;1271;111299;-75
2024/04/09 04:48:40;;;;;;;5.00;2.20;;;;;;;16.08;54.43;98898.02;105114;1273;97925;-75
2024/04/09 04:51:09;;;;;;;4.30;2.30;;;;;;;16.09;54.39;98891.84;104250;1274;107632;-75
2024/04/09 04:53:37;;;;;;;5.60;2.50;;;;;;;16.10;54.49;98893.58;104232;1281;98079;-76
2024/04/09 04:56:05;;;;;;;5.00;2.30;;;;;;;16.11;54.72;98896.09;104036;1271;99276;-76
2024/04/09 04:58:34;;;;;;;5.80;2.30;;;;;;;16.12;54.46;98896.89;104636;1271;111072;-76
2024/04/09 05:01:02;;;;;;;2.90;2.30;;;;;;;16.14;54.55;98895.29;104406;1274;98349;-76
2024/04/09 05:03:30;;;;;;;3.70;2.40;;;;;;;16.15;54.60;98894.98;106384;1274;106989;-76
2024/04/09 05:06:07;;;;;;;4.80;2.30;;;;;;;16.15;54.59;98899.23;104787;1273;98086;-77
2024/04/09 05:08:35;;;;;;;5.70;2.30;;;;;;;16.17;54.60;98897.81;104685;1276;98231;-77
2024/04/09 05:11:08;;;;;;;5.20;2.40;;;;;;;16.20;54.59;98901.83;105354;1271;110948;-76
2024/04/09 05:13:36;;;;;;;3.20;1.90;;;;;;;16.21;54.62;98898.35;105667;1274;97931;-81
2024/04/09 05:16:15;;;;;;;6.10;2.00;;;;;;;16.24;54.68;98901.50;104591;1276;109731;-79
2024/04/09 05:19:02;;;;;;;3.10;2.10;;;;;;;16.24;54.81;98897.48;105096;1270;99292;-79
2024/04/09 05:21:53;;;;;;;4.40;2.30;;;;;;;16.27;54.72;98901.02;104013;1283;99592;-77
2024/04/09 05:24:23;;;;;;;4.50;2.30;;;;;;;16.29;54.71;98898.61;103737;1289;111268;-76
2024/04/09 05:26:54;;;;;;;3.60;2.20;;;;;;;16.32;54.88;98897.41;103864;1277;97975;-76
2024/04/09 05:30:02;;;;;;;5.50;2.10;;;;;;;16.37;54.93;98896.08;104306;1274;107422;-80
2024/04/09 05:43:57;;;;;;;4.40;2.50;;;;;;;17.03;54.84;98896.45;103064;1285;647623;-76
2024/04/09 05:46:25;;;;;;;4.00;2.20;;;;;;;17.12;54.81;98901.41;104761;1267;136505;-77
2024/04/09 05:48:53;;;;;;;5.20;2.40;;;;;;;17.12;55.02;98899.09;105311;1260;96185;-80
2024/04/09 05:51:21;;;;;;;4.00;2.20;;;;;;;17.11;55.09;98902.77;105427;1254;107480;-76
2024/04/09 05:53:58;;;;;;;3.10;2.20;;;;;;;17.11;55.15;98904.27;105176;1260;97213;-79
2024/04/09 07:12:34;;;;;;;5.20;2.20;;;;;;;19.08;54.42;98894.75;104641;1282;109014;-78
2024/04/09 07:15:27;;;;;;;;;;;;;;;;;;;;;
2024/04/09 07:19:24;;;;;;;3.00;2.40;;;;;;;19.17;54.35;98897.19;103181;1288;649222;-77
2024/04/09 07:21:54;;;;;;;3.20;2.10;;;;;;;19.22;54.28;98900.08;104531;1266;95353;-78
2024/04/09 07:24:21;;;;;;;3.80;2.40;;;;;;;19.26;54.17;98895.98;104669;1267;95266;-79
2024/04/09 07:26:48;;;;;;;3.40;2.20;;;;;;;19.33;54.20;98899.52;104555;1266;95380;-77
2024/04/09 07:29:15;;;;;;;4.40;2.20;;;;;;;19.40;54.05;98893.52;104761;1268;95302;-77
2024/04/09 07:31:42;;;;;;;4.40;1.80;;;;;;;19.46;54.00;98893.37;105131;1256;160852;-76
2024/04/09 07:34:09;;;;;;;3.60;2.30;;;;;;;19.51;53.94;98894.51;104923;1262;95338;-75
2024/04/09 07:36:37;;;;;;;3.80;1.90;;;;;;;19.53;53.96;98896.46;105100;1258;95290;-78
2024/04/09 07:39:07;;;;;;;5.30;2.10;;;;;;;19.55;53.80;98892.04;105279;1256;95308;-77
2024/04/09 07:41:37;;;;;;;5.40;2.40;;;;;;;19.60;53.76;98892.17;104752;1254;97188;-76
2024/04/09 07:44:04;;;;;;;2.80;2.20;;;;;;;19.68;53.69;98895.66;105201;1256;96707;-77
2024/04/09 07:46:31;;;;;;;5.10;2.30;;;;;;;19.72;53.74;98898.75;104870;1260;96645;-76
2024/04/09 07:49:00;;;;;;;3.10;1.80;;;;;;;19.73;53.62;98898.96;105072;1260;97100;-76
2024/04/09 07:51:33;;;;;;;4.80;2.60;;;;;;;19.77;53.50;98899.42;105552;1255;111136;-78
2024/04/09 07:54:20;;;;;;;;;;;;;;;;;;;;;
2024/04/09 07:57:16;;;;;;;;;;;;;;;;;;;;;
2024/04/09 07:59:50;;;;;;;4.30;1.90;;;;;;;19.88;53.45;98908.30;105553;1256;97060;-78
2024/04/09 08:02:21;;;;;;;5.30;1.90;;;;;;;19.93;53.29;98907.96;105481;1253;96608;-77
2024/04/09 08:05:12;;;;;;;3.60;2.10;;;;;;;19.96;53.25;98907.20;105192;1266;109861;-78
2024/04/09 08:08:04;;;;;;;4.40;1.90;;;;;;;20.01;53.23;98914.39;105187;1275;97869;-79
2024/04/09 08:11:08;;;;;;;3.00;2.00;;;;;;;20.08;53.17;98906.77;105087;1253;109180;-77
2024/04/09 08:14:34;;;;;;;5.10;2.00;;;;;;;20.17;52.93;98905.03;105308;1255;96611;-78
2024/04/09 10:04:03;;;;;;;2.80;1.90;;;;;;;22.23;49.44;98856.14;103160;1286;650081;-77
2024/04/09 10:06:40;;;;;;;3.20;1.90;;;;;;;22.24;49.59;98855.19;105465;1269;95245;-77
2024/04/09 10:09:42;;;;;;;3.90;1.90;;;;;;;22.25;49.06;98854.77;105289;1262;95367;-76
2024/04/09 10:12:38;;;;;;;5.60;2.10;;;;;;;22.28;49.38;98854.90;105432;1261;110255;-78
2024/04/09 10:30:17;;;;;;;4.40;2.30;;;;;;;22.65;48.03;98854.59;102834;1288;650363;-72
2024/04/09 10:32:58;;;;;;;5.30;1.90;;;;;;;22.58;47.92;98852.55;105510;1265;341458;-72
2024/04/09 10:35:27;;;;;;;4.70;2.00;;;;;;;22.47;47.77;98851.36;104600;1269;95317;-77
2024/04/09 10:37:56;;;;;;;3.00;1.80;;;;;;;22.38;47.91;98853.00;105026;1263;109081;-70
2024/04/09 10:40:24;;;;;;;3.20;1.70;;;;;;;22.31;47.78;98853.14;105721;1257;96247;-71
2024/04/09 10:42:52;;;;;;;3.00;1.70;;;;;;;22.25;47.76;98851.11;105124;1270;107700;-70
2024/04/09 10:45:20;;;;;;;2.80;1.90;;;;;;;22.19;47.74;98848.43;105755;1260;95645;-72
2024/04/09 10:47:48;;;;;;;7.80;2.30;;;;;;;22.11;47.62;98849.48;104812;1264;95227;-72
2024/04/09 10:50:16;;;;;;;4.10;2.30;;;;;;;22.03;47.26;98846.34;105730;1261;108964;-71
2024/04/09 10:52:44;;;;;;;4.40;1.90;;;;;;;21.96;47.34;98845.82;105230;1262;97333;-71
2024/04/09 10:55:14;;;;;;;5.20;2.00;;;;;;;21.89;47.24;98838.12;105260;1261;107613;-73
2024/04/09 10:57:44;;;;;;;5.40;2.10;;;;;;;21.83;47.46;98839.08;105591;1263;96630;-71
2024/04/09 11:00:13;;;;;;;3.90;2.10;;;;;;;21.76;47.42;98835.96;105115;1262;96651;-72
2024/04/09 11:02:42;;;;;;;4.00;2.00;;;;;;;21.71;47.31;98834.71;105462;1259;107888;-72
2024/04/09 11:05:11;;;;;;;3.10;2.00;;;;;;;21.72;47.41;98834.47;106011;1253;96680;-71
2024/04/09 11:07:39;;;;;;;3.40;1.90;;;;;;;21.77;47.34;98830.61;105697;1254;107610;-70
2024/04/09 11:10:15;;;;;;;3.90;1.90;;;;;;;21.84;47.72;98826.60;105652;1255;96618;-74
2024/04/09 11:12:48;;;;;;;3.60;1.90;;;;;;;21.91;47.57;98824.69;106107;1260;96609;-72
2024/04/09 11:15:16;;;;;;;7.90;1.80;;;;;;;22.01;47.34;98824.95;105487;1257;110570;-73
2024/04/09 11:17:46;;;;;;;5.60;2.40;;;;;;;22.08;47.60;98817.16;107110;1257;96648;-72
2024/04/09 11:20:18;;;;;;;6.80;1.80;;;;;;;22.19;47.61;98814.98;106605;1259;107427;-72
2024/04/09 11:22:46;;;;;;;4.00;1.90;;;;;;;22.28;47.50;98814.69;105989;1259;96617;-71
2024/04/09 11:29:57;;;;;;;3.90;2.10;;;;;;;22.48;47.47;98809.84;105284;1259;109771;-73
2024/04/09 11:32:25;;;;;;;3.10;1.90;;;;;;;22.53;47.54;98809.30;106118;1257;97458;-73
2024/04/09 11:34:55;;;;;;;4.00;1.90;;;;;;;22.58;47.41;98806.47;105578;1259;107665;-74
2024/04/09 11:37:30;;;;;;;3.30;2.20;;;;;;;22.61;47.45;98797.79;105583;1257;96575;-76
2024/04/09 11:40:00;;;;;;;3.10;1.80;;;;;;;22.60;47.26;98795.48;105661;1257;96524;-74
2024/04/09 11:42:30;;;;;;;2.50;1.90;;;;;;;22.61;47.08;98795.40;105608;1259;109855;-73
2024/04/09 11:44:59;;;;;;;3.70;1.90;;;;;;;22.57;47.00;98792.49;105332;1256;97353;-73
2024/04/09 11:47:27;;;;;;;4.60;2.00;;;;;;;22.58;47.01;98790.88;105535;1258;107459;-73
2024/04/09 11:49:55;;;;;;;4.70;2.10;;;;;;;22.58;46.89;98792.27;106064;1256;96604;-73
2024/04/09 11:52:22;;;;;;;4.40;2.00;;;;;;;22.60;47.00;98784.20;105233;1258;96716;-71
2024/04/09 11:54:50;;;;;;;3.60;1.80;;;;;;;22.63;46.82;98782.40;105224;1258;109838;-75
2024/04/09 11:57:19;;;;;;;3.30;2.10;;;;;;;22.67;46.80;98779.80;105912;1258;96650;-73
2024/04/09 11:59:47;;;;;;;3.60;2.10;;;;;;;22.67;46.84;98780.02;105034;1259;107342;-72
2024/04/09 12:02:16;;;;;;;4.50;2.00;;;;;;;22.67;46.84;98772.42;105259;1259;96598;-73
2024/04/09 12:04:44;;;;;;;4.90;2.20;;;;;;;22.69;46.68;98771.19;105462;1259;96596;-72
2024/04/09 12:07:23;;;;;;;4.70;2.00;;;;;;;22.68;46.63;98764.16;105606;1259;111039;-77
2024/04/09 12:09:57;;;;;;;4.20;1.90;;;;;;;22.66;46.69;98760.60;105150;1255;96612;-75
2024/04/09 12:12:25;;;;;;;3.10;2.00;;;;;;;22.70;46.65;98757.27;105051;1254;107132;-72
2024/04/09 12:14:53;;;;;;;5.50;2.10;;;;;;;22.75;46.69;98752.17;105420;1259;96632;-74
2024/04/09 12:17:20;;;;;;;3.10;2.00;;;;;;;22.79;46.60;98746.48;105476;1258;96616;-74
2024/04/09 12:19:49;;;;;;;3.90;2.20;;;;;;;22.78;46.61;98744.27;105571;1257;109912;-74
2024/04/09 12:22:16;;;;;;;4.30;2.30;;;;;;;22.83;46.65;98745.11;105319;1259;96596;-73
2024/04/09 12:24:44;;;;;;;3.30;1.90;;;;;;;22.84;46.56;98740.73;105964;1259;107508;-72
2024/04/09 12:27:12;;;;;;;3.70;2.40;;;;;;;22.80;46.53;98736.39;105354;1259;97529;-72
2024/04/09 12:29:40;;;;;;;3.50;2.00;;;;;;;22.77;46.38;98735.00;105694;1259;97796;-72
2024/04/09 12:32:10;;;;;;;3.30;2.20;;;;;;;22.84;46.46;98732.61;105753;1258;109826;-73
2024/04/09 12:34:38;;;;;;;9.40;2.30;;;;;;;22.87;46.41;98723.82;105312;1257;96677;-74
2024/04/09 12:37:06;;;;;;;4.10;2.30;;;;;;;22.89;46.34;98720.55;105391;1259;107617;-73
2024/04/09 12:39:34;;;;;;;3.10;1.90;;;;;;;22.93;46.24;98717.15;106188;1259;97538;-77
2024/04/09 12:42:03;;;;;;;3.20;2.00;;;;;;;22.92;46.21;98716.69;105310;1259;97947;-75
2024/04/09 12:44:31;;;;;;;3.70;2.00;;;;;;;22.91;46.32;98712.97;108290;1256;109984;-75
2024/04/09 12:47:07;;;;;;;4.10;2.10;;;;;;;22.93;46.46;98713.06;105465;1259;96687;-74
2024/04/09 12:49:35;;;;;;;2.70;1.80;;;;;;;22.99;46.36;98712.84;105824;1259;108042;-74
2024/04/09 12:52:15;;;;;;;3.80;2.30;;;;;;;23.05;46.10;98712.06;105061;1259;97973;-75
2024/04/09 12:54:43;;;;;;;3.80;2.00;;;;;;;23.09;46.06;98711.04;106097;1259;97948;-72
2024/04/09 12:57:11;;;;;;;4.50;2.00;;;;;;;23.11;46.04;98712.38;105376;1258;109620;-71
2024/04/09 12:59:39;;;;;;;4.40;2.00;;;;;;;23.13;45.98;98709.61;105103;1270;96681;-70
2024/04/09 13:02:26;;;;;;;4.20;1.90;;;;;;;23.13;45.85;98707.35;105476;1259;107746;-72
2024/04/09 13:04:55;;;;;;;3.60;1.90;;;;;;;23.15;45.95;98705.61;106163;1259;97918;-72
2024/04/09 13:07:23;;;;;;;3.20;2.00;;;;;;;23.18;45.67;98698.45;105481;1257;96540;-73
2024/04/09 13:09:52;;;;;;;2.80;2.00;;;;;;;23.18;45.85;98696.81;107288;1258;109884;-74
2024/04/09 13:12:19;;;;;;;3.20;1.70;;;;;;;23.19;45.73;98694.69;108213;1258;95696;-73
2024/04/09 13:14:47;;;;;;;3.70;2.30;;;;;;;23.16;45.57;98688.95;105990;1259;107269;-70
2024/04/09 13:17:19;;;;;;;3.60;1.90;;;;;;;23.16;45.51;98689.96;105320;1259;96626;-70
2024/04/09 13:19:47;;;;;;;3.50;1.90;;;;;;;23.14;45.38;98687.83;105822;1258;96596;-71
2024/04/09 13:22:26;;;;;;;;;;;;;;;;;;;;;
2024/04/09 13:24:55;;;;;;;3.50;1.90;;;;;;;23.11;45.31;98683.42;105992;1259;96579;-74
2024/04/09 13:27:27;;;;;;;4.40;2.10;;;;;;;23.13;45.01;98683.27;105903;1255;107346;-73
2024/04/09 13:29:59;;;;;;;3.50;2.00;;;;;;;23.15;44.99;98681.60;105724;1257;96635;-73
2024/04/09 13:32:28;;;;;;;9.90;2.50;;;;;;;23.16;44.78;98679.48;105236;1259;96601;-73
2024/04/09 13:34:56;;;;;;;6.50;2.20;;;;;;;23.21;44.72;98677.97;106180;1259;110386;-71
2024/04/09 13:37:23;;;;;;;3.30;1.90;;;;;;;23.24;44.90;98675.41;105714;1259;97962;-71
2024/04/09 13:39:51;;;;;;;2.50;1.60;;;;;;;23.27;44.61;98679.00;108276;1257;107620;-72
2024/04/09 13:42:18;;;;;;;5.30;1.90;;;;;;;23.28;44.73;98678.63;105955;1257;97533;-77
2024/04/09 13:44:46;;;;;;;3.90;2.40;;;;;;;23.24;44.49;98678.32;105604;1259;96704;-75
2024/04/09 13:47:14;;;;;;;3.10;1.90;;;;;;;23.17;44.48;98679.20;105797;1258;109946;-72
2024/04/09 13:49:42;;;;;;;2.70;1.90;;;;;;;23.12;44.62;98680.39;105318;1259;97915;-73
2024/04/09 13:52:09;;;;;;;5.30;2.00;;;;;;;23.09;44.59;98678.83;108308;1256;108146;-76
2024/04/09 13:54:39;;;;;;;2.90;1.90;;;;;;;23.06;44.55;98677.15;107070;1259;96646;-73
2024/04/09 13:57:12;;;;;;;3.90;2.30;;;;;;;23.07;44.49;98674.19;108023;1259;94497;-74
2024/04/09 13:59:45;;;;;;;4.70;2.40;;;;;;;23.06;44.49;98670.16;105280;1259;109088;-74
2024/04/09 14:02:19;;;;;;;4.90;2.00;;;;;;;23.11;44.54;98667.95;105873;1259;96601;-73
2024/04/09 14:04:54;;;;;;;3.00;1.90;;;;;;;23.16;44.44;98665.51;107158;1259;107534;-73
2024/04/09 14:07:25;;;;;;;3.40;2.00;;;;;;;23.26;44.40;98664.05;105460;1259;97538;-74
2024/04/09 14:09:59;;;;;;;5.40;2.00;;;;;;;23.37;44.55;98664.46;105514;1259;96677;-74
2024/04/09 14:12:35;;;;;;;5.60;2.10;;;;;;;23.44;44.31;98659.55;105873;1259;109848;-72
2024/04/09 14:15:15;;;;;;;4.10;1.80;;;;;;;23.48;44.15;98656.31;105342;1260;97186;-77
2024/04/09 14:18:01;;;;;;;7.90;2.00;;;;;;;23.47;44.19;98659.69;105291;1260;107604;-77
2024/04/09 14:20:50;;;;;;;3.90;1.90;;;;;;;23.45;44.02;98652.79;105471;1254;97145;-73
2024/04/09 14:23:22;;;;;;;5.30;2.20;;;;;;;23.40;43.94;98656.43;105442;1259;97250;-73
2024/04/09 14:25:55;;;;;;;2.90;1.90;;;;;;;23.40;43.99;98656.17;108338;1254;109645;-73
2024/04/09 14:28:23;;;;;;;2.30;1.80;;;;;;;23.38;43.88;98654.41;108355;1256;95445;-73
2024/04/09 14:30:59;;;;;;;4.60;2.20;;;;;;;23.34;43.77;98653.14;108344;1254;107643;-76
2024/04/09 14:33:48;;;;;;;5.80;2.30;;;;;;;23.30;43.74;98654.42;108419;1254;94809;-72
2024/04/09 14:36:16;;;;;;;5.40;2.00;;;;;;;23.26;43.85;98647.87;106880;1259;96557;-74
2024/04/09 14:38:47;;;;;;;2.90;1.80;;;;;;;23.23;43.72;98649.57;108482;1254;109785;-76
2024/04/09 14:41:16;;;;;;;4.10;2.40;;;;;;;23.20;43.55;98645.40;106089;1259;96653;-74
2024/04/09 14:43:44;;;;;;;3.30;2.00;;;;;;;23.15;43.64;98642.20;108285;1257;107322;-75
2024/04/09 14:46:38;;;;;;;4.00;2.00;;;;;;;23.14;43.58;98641.71;108296;1254;95850;-75
2024/04/09 14:49:44;;;;;;;3.70;1.80;;;;;;;23.13;43.21;98638.12;108207;1254;96617;-77
2024/04/09 14:52:12;;;;;;;2.50;1.50;;;;;;;23.13;43.12;98633.65;108333;1254;109241;-74
2024/04/09 14:54:40;;;;;;;4.40;1.70;;;;;;;23.11;43.13;98633.31;108336;1254;96528;-73
2024/04/09 14:57:33;;;;;;;;;;;;;;;;;;;;;
2024/04/09 15:01:22;;;;;;;;;;;;;;;;;;;;;
2024/04/09 15:04:23;;;;;;;5.70;2.10;;;;;;;23.11;43.01;98630.01;107643;1258;95841;-74
2024/04/09 15:07:22;;;;;;;4.80;1.90;;;;;;;23.03;42.90;98630.36;108337;1254;111357;-77
2024/04/09 15:10:10;;;;;;;3.10;2.00;;;;;;;22.93;42.89;98635.46;108364;1254;96422;-75
2024/04/09 15:12:43;;;;;;;4.10;1.80;;;;;;;22.85;42.55;98636.14;106795;1258;108105;-73
2024/04/09 15:15:10;;;;;;;3.60;1.80;;;;;;;22.81;42.38;98636.70;108334;1257;97471;-73
2024/04/09 15:17:38;;;;;;;3.20;1.80;;;;;;;22.74;42.53;98635.67;105835;1255;97969;-75
2024/04/09 15:20:09;;;;;;;3.70;1.80;;;;;;;22.65;42.62;98631.33;108333;1254;111293;-71
2024/04/09 15:22:39;;;;;;;3.60;1.90;;;;;;;22.58;42.38;98636.59;107776;1259;97872;-74
2024/04/09 15:25:11;;;;;;;2.60;1.70;;;;;;;22.51;42.51;98636.64;106081;1258;107622;-75
2024/04/09 15:27:41;;;;;;;2.70;1.60;;;;;;;22.42;42.30;98633.95;108331;1254;95918;-72